createdAt,value
2022-08-11T00:01:26.111Z,67.04
2022-08-11T00:04:11.636Z,67.13
2022-08-11T00:07:03.158Z,67.32
2022-08-11T00:09:49.847Z,68.11
2022-08-11T00:12:37.949Z,67.86
2022-08-11T00:15:39.628Z,68.32
2022-08-11T00:18:40.263Z,68.73
2022-08-11T00:22:01.974Z,69.22
2022-08-11T00:24:53.599Z,69.25
2022-08-11T00:27:42.868Z,69.59
2022-08-11T00:30:39.401Z,69.73
2022-08-11T00:33:44.409Z,69.72
2022-08-11T00:36:53.505Z,70.54
2022-08-11T00:39:46.815Z,70.36
2022-08-11T00:42:58.594Z,70.89
2022-08-11T00:46:12.506Z,71.00
2022-08-11T00:49:01.802Z,71.10
2022-08-11T00:52:22.759Z,71.85
2022-08-11T00:55:18.070Z,71.98
2022-08-11T00:58:06.344Z,71.95
2022-08-11T01:01:18.604Z,73.36
2022-08-11T01:04:23.740Z,72.57
2022-08-11T01:08:01.582Z,72.76
2022-08-11T01:11:16.630Z,73.17
2022-08-11T01:14:34.148Z,73.41
2022-08-11T01:17:36.514Z,73.57
2022-08-11T01:20:53.155Z,73.38
2022-08-11T01:24:04.113Z,73.56
2022-08-11T01:27:19.084Z,73.25
2022-08-11T01:30:27.610Z,73.45
2022-08-11T01:33:52.278Z,73.55
2022-08-11T01:36:53.416Z,73.43
2022-08-11T01:39:56.374Z,72.25
2022-08-11T01:43:40.571Z,71.34
2022-08-11T01:46:48.138Z,70.44
2022-08-11T01:50:05.965Z,69.93
2022-08-11T01:53:11.255Z,69.14
2022-08-11T01:56:43.263Z,68.72
2022-08-11T01:59:35.388Z,68.61
2022-08-11T02:02:44.990Z,68.33
2022-08-11T02:06:01.314Z,67.91
2022-08-11T02:09:00.027Z,67.73
2022-08-11T02:11:50.701Z,68.05
2022-08-11T02:15:04.987Z,68.73
2022-08-11T02:18:07.484Z,69.27
2022-08-11T02:21:22.006Z,68.75
2022-08-11T02:24:17.404Z,68.57
2022-08-11T02:27:19.280Z,68.51
2022-08-11T02:30:18.042Z,68.40
2022-08-11T02:33:25.611Z,68.24
2022-08-11T02:36:34.593Z,67.93
2022-08-11T02:39:22.144Z,67.79
2022-08-11T02:42:42.387Z,67.71
2022-08-11T02:45:42.174Z,67.30
2022-08-11T02:49:03.029Z,67.05
2022-08-11T02:51:55.015Z,67.04
2022-08-11T02:55:07.570Z,67.17
2022-08-11T03:01:29.082Z,67.26
2022-08-11T03:04:51.856Z,67.13
2022-08-11T03:08:15.461Z,67.55
2022-08-11T03:11:37.416Z,68.01
2022-08-11T03:15:32.138Z,68.21
2022-08-11T03:18:25.532Z,68.51
2022-08-11T03:22:01.394Z,68.44
2022-08-11T03:24:50.147Z,68.33
2022-08-11T03:28:19.838Z,68.16
2022-08-11T03:31:25.267Z,67.59
2022-08-11T03:34:20.556Z,67.55
2022-08-11T03:37:39.302Z,67.62
2022-08-11T03:41:02.800Z,68.29
2022-08-11T03:44:28.707Z,68.50
2022-08-11T03:47:28.371Z,68.62
2022-08-11T03:50:35.392Z,68.14
2022-08-11T03:53:56.749Z,68.32
2022-08-11T03:57:31.667Z,67.82
2022-08-11T04:00:50.409Z,67.51
2022-08-11T04:03:58.726Z,66.99
2022-08-11T04:07:02.492Z,66.99
2022-08-11T04:10:13.280Z,67.12
2022-08-11T04:13:17.487Z,67.94
2022-08-11T04:16:15.976Z,69.03
2022-08-11T04:19:40.138Z,69.93
2022-08-11T04:22:36.789Z,70.26
2022-08-11T04:25:57.715Z,71.12
2022-08-11T04:28:50.142Z,71.36
2022-08-11T04:31:50.363Z,71.34
2022-08-11T04:34:41.569Z,71.91
2022-08-11T04:37:34.266Z,72.20
2022-08-11T04:40:43.561Z,72.34
2022-08-11T04:44:05.654Z,72.70
2022-08-11T04:47:12.015Z,72.11
2022-08-11T04:50:43.269Z,71.94
2022-08-11T04:54:28.426Z,71.69
2022-08-11T04:57:41.690Z,71.35
2022-08-11T05:00:50.092Z,71.04
2022-08-11T05:04:33.084Z,70.62
2022-08-11T05:07:49.678Z,69.99
2022-08-11T05:10:56.998Z,69.88
2022-08-11T05:14:07.570Z,69.67
2022-08-11T05:17:18.600Z,68.97
2022-08-11T05:20:31.523Z,68.45
2022-08-11T05:23:41.639Z,68.16
2022-08-11T05:26:53.390Z,67.61
2022-08-11T05:30:06.166Z,67.14
2022-08-11T05:33:32.030Z,66.47
2022-08-11T05:36:45.299Z,65.67
2022-08-11T05:39:57.110Z,65.56
2022-08-11T05:43:08.288Z,64.81
2022-08-11T05:46:25.823Z,64.70
2022-08-11T05:49:32.971Z,64.13
2022-08-11T05:52:43.984Z,64.00
2022-08-11T05:56:22.275Z,63.45
2022-08-11T05:59:20.530Z,63.38
2022-08-11T06:02:11.321Z,63.01
2022-08-11T06:05:06.355Z,62.76
2022-08-11T06:08:02.811Z,62.64
2022-08-11T06:11:07.068Z,62.51
2022-08-11T06:14:04.348Z,61.74
2022-08-11T06:16:56.546Z,62.10
2022-08-11T06:19:51.210Z,61.61
2022-08-11T06:22:56.231Z,61.03
2022-08-11T06:25:47.621Z,60.71
2022-08-11T06:28:41.545Z,60.68
2022-08-11T06:31:36.263Z,60.71
2022-08-11T06:34:40.073Z,59.91
2022-08-11T06:37:59.140Z,59.62
2022-08-11T06:41:21.426Z,58.79
2022-08-11T06:44:15.682Z,58.70
2022-08-11T06:47:10.452Z,58.02
2022-08-11T06:50:19.560Z,57.97
2022-08-11T06:53:17.634Z,57.19
2022-08-11T06:56:28.436Z,57.46
2022-08-11T06:59:47.105Z,57.08
2022-08-11T07:03:01.713Z,56.57
2022-08-11T07:06:12.509Z,56.92
2022-08-11T07:10:26.847Z,56.40
2022-08-11T07:13:44.404Z,56.22
2022-08-11T07:16:35.666Z,56.28
2022-08-11T07:19:47.915Z,55.62
2022-08-11T07:22:55.306Z,55.60
2022-08-11T07:26:12.873Z,55.35
2022-08-11T07:29:14.292Z,54.77
2022-08-11T07:32:06.443Z,54.02
2022-08-11T07:35:14.219Z,53.68
2022-08-11T07:38:08.375Z,52.93
2022-08-11T07:41:04.357Z,52.45
2022-08-11T07:44:11.656Z,51.64
2022-08-11T07:47:20.287Z,51.15
2022-08-11T07:50:28.218Z,50.56
2022-08-11T07:53:23.593Z,50.06
2022-08-11T07:56:47.990Z,49.40
2022-08-11T08:00:03.395Z,49.12
2022-08-11T08:03:19.343Z,48.04
2022-08-11T08:06:35.779Z,48.50
2022-08-11T08:09:43.783Z,48.33
2022-08-11T08:12:54.057Z,47.70
2022-08-11T08:16:00.177Z,47.27
2022-08-11T08:18:50.107Z,46.90
2022-08-11T08:21:40.777Z,46.46
2022-08-11T08:24:36.853Z,45.78
2022-08-11T08:27:27.728Z,45.08
2022-08-11T08:30:37.152Z,45.15
2022-08-11T08:33:30.191Z,44.43
2022-08-11T08:36:21.349Z,44.05
2022-08-11T08:39:09.841Z,44.12
2022-08-11T08:42:00.166Z,43.27
2022-08-11T08:45:04.170Z,42.99
2022-08-11T08:48:01.961Z,43.15
2022-08-11T08:51:21.904Z,42.54
2022-08-11T08:54:35.114Z,42.46
2022-08-11T08:57:32.116Z,42.65
2022-08-11T09:00:41.038Z,42.78
2022-08-11T09:04:02.991Z,42.76
2022-08-11T09:06:43.019Z,43.04
2022-08-11T09:09:35.078Z,41.55
2022-08-11T09:12:36.304Z,42.65
2022-08-11T09:15:26.619Z,42.50
2022-08-11T09:18:19.665Z,42.85
2022-08-11T09:21:13.854Z,42.46
2022-08-11T09:24:26.584Z,42.47
2022-08-11T09:27:14.578Z,41.54
2022-08-11T09:30:17.066Z,40.94
2022-08-11T09:33:07.005Z,40.83
2022-08-11T09:35:54.894Z,40.31
2022-08-11T09:39:27.317Z,40.41
2022-08-11T09:42:45.627Z,39.70
2022-08-11T09:45:39.889Z,39.79
2022-08-11T09:48:45.530Z,39.57
2022-08-11T09:51:34.106Z,39.89
2022-08-11T09:54:22.105Z,39.88
2022-08-11T09:57:31.061Z,40.13
2022-08-11T10:00:18.988Z,40.51
2022-08-11T10:03:22.030Z,40.09
2022-08-11T10:06:34.254Z,39.88
2022-08-11T10:09:21.645Z,40.30
2022-08-11T10:12:43.198Z,40.09
2022-08-11T10:15:59.768Z,40.32
2022-08-11T10:18:53.702Z,39.47
2022-08-11T10:22:07.011Z,39.30
2022-08-11T10:25:20.032Z,39.48
2022-08-11T10:28:32.715Z,39.24
2022-08-11T10:31:45.128Z,38.52
2022-08-11T10:34:54.616Z,38.30
2022-08-11T10:38:07.753Z,38.20
2022-08-11T10:41:17.725Z,38.54
2022-08-11T10:44:10.033Z,38.79
2022-08-11T10:47:16.122Z,38.59
2022-08-11T10:50:29.388Z,38.13
2022-08-11T10:53:45.393Z,37.20
2022-08-11T10:57:18.399Z,36.81
2022-08-11T11:00:15.746Z,36.66
2022-08-11T11:03:23.055Z,36.29
2022-08-11T11:06:29.186Z,36.45
2022-08-11T11:09:33.664Z,37.05
2022-08-11T11:12:55.951Z,37.07
2022-08-11T11:16:06.584Z,35.87
2022-08-11T11:19:05.786Z,36.16
2022-08-11T11:22:19.185Z,35.88
2022-08-11T11:25:43.518Z,35.70
2022-08-11T11:29:18.740Z,34.96
2022-08-11T11:32:23.118Z,35.20
2022-08-11T11:35:26.332Z,35.19
2022-08-11T11:38:17.253Z,35.58
2022-08-11T11:41:26.287Z,35.82
2022-08-11T11:44:17.081Z,35.82
2022-08-11T11:47:16.117Z,35.92
2022-08-11T11:50:14.677Z,36.43
2022-08-11T11:53:15.466Z,36.89
2022-08-11T11:56:10.411Z,36.25
2022-08-11T11:59:28.298Z,36.61
2022-08-11T12:02:19.875Z,36.64
2022-08-11T12:05:17.582Z,36.31
2022-08-11T12:08:15.879Z,36.51
2022-08-11T12:11:25.889Z,36.38
2022-08-11T12:14:18.840Z,36.30
2022-08-11T12:17:10.631Z,36.39
2022-08-11T12:20:04.841Z,36.09
2022-08-11T12:23:35.010Z,36.13
2022-08-11T12:26:43.315Z,36.03
2022-08-11T12:29:50.067Z,35.96
2022-08-11T12:32:53.239Z,36.17
2022-08-11T12:35:42.788Z,36.01
2022-08-11T12:38:51.510Z,36.35
2022-08-11T12:42:02.145Z,36.21
2022-08-11T12:45:21.943Z,36.25
2022-08-11T12:48:58.412Z,36.17
2022-08-11T12:52:12.068Z,35.90
2022-08-11T12:55:13.682Z,35.96
2022-08-11T12:58:18.334Z,36.18
2022-08-11T13:01:27.714Z,36.65
2022-08-11T13:04:34.758Z,36.34
2022-08-11T13:07:51.007Z,36.34
2022-08-11T13:10:54.847Z,35.89
2022-08-11T13:13:53.587Z,36.13
2022-08-11T13:17:01.389Z,36.29
2022-08-11T13:19:50.308Z,35.88
2022-08-11T13:22:39.356Z,35.83
2022-08-11T13:25:31.691Z,35.58
2022-08-11T13:28:21.705Z,34.74
2022-08-11T13:31:14.641Z,34.63
2022-08-11T13:37:00.787Z,35.10
2022-08-11T13:39:53.174Z,35.41
2022-08-11T13:42:41.333Z,35.14
2022-08-11T13:45:27.963Z,34.97
2022-08-11T13:48:17.840Z,35.01
2022-08-11T13:51:22.836Z,35.42
2022-08-11T13:54:23.511Z,35.22
2022-08-11T13:58:06.710Z,34.67
2022-08-11T14:00:28.056Z,35.04
2022-08-11T14:03:18.798Z,34.87
2022-08-11T14:06:05.702Z,34.66
2022-08-11T14:08:55.592Z,35.28
2022-08-11T14:12:21.818Z,35.38
2022-08-11T14:15:35.633Z,35.24
2022-08-11T14:18:32.005Z,35.22
2022-08-11T14:21:40.940Z,35.15
2022-08-11T14:24:30.378Z,35.14
2022-08-11T14:28:29.814Z,34.96
2022-08-11T14:30:43.583Z,35.14
2022-08-11T14:34:00.409Z,35.07
2022-08-11T14:36:45.603Z,34.40
2022-08-11T14:39:41.524Z,34.14
2022-08-11T14:42:51.220Z,34.34
2022-08-11T14:45:58.646Z,34.67
2022-08-11T14:48:50.737Z,34.87
2022-08-11T14:51:41.754Z,35.04
2022-08-11T14:54:50.325Z,35.37
2022-08-11T14:57:55.578Z,35.36
2022-08-11T15:00:45.471Z,35.57
2022-08-11T15:03:33.903Z,35.65
2022-08-11T15:06:20.750Z,35.64
2022-08-11T15:09:09.360Z,35.71
2022-08-11T15:12:32.604Z,35.91
2022-08-11T15:15:39.369Z,35.54
2022-08-11T15:18:32.081Z,35.70
2022-08-11T15:21:36.571Z,35.19
2022-08-11T15:24:25.148Z,34.79
2022-08-11T15:27:35.575Z,34.38
2022-08-11T15:30:42.842Z,35.02
2022-08-11T15:33:53.373Z,34.75
2022-08-11T15:37:00.122Z,34.65
2022-08-11T15:40:31.194Z,34.84
2022-08-11T15:43:40.578Z,34.55
2022-08-11T15:46:46.237Z,34.82
2022-08-11T15:50:11.422Z,34.15
2022-08-11T15:52:57.314Z,34.73
2022-08-11T15:55:45.877Z,34.66
2022-08-11T15:59:10.779Z,34.44
2022-08-11T16:02:20.685Z,34.63
2022-08-11T16:05:11.486Z,34.68
2022-08-11T16:08:00.357Z,34.77
2022-08-11T16:10:48.072Z,34.31
2022-08-11T16:13:42.264Z,34.20
2022-08-11T16:16:30.676Z,34.18
2022-08-11T16:19:20.582Z,34.28
2022-08-11T16:22:09.793Z,34.29
2022-08-11T16:26:30.362Z,34.25
2022-08-11T16:28:08.090Z,34.69
2022-08-11T16:30:55.104Z,34.73
2022-08-11T16:33:51.301Z,34.41
2022-08-11T16:36:57.766Z,34.20
2022-08-11T16:39:48.342Z,34.33
2022-08-11T16:43:05.289Z,34.12
2022-08-11T16:46:22.614Z,34.35
2022-08-11T16:49:14.702Z,34.48
2022-08-11T16:52:08.127Z,34.21
2022-08-11T16:54:54.698Z,34.45
2022-08-11T16:58:00.112Z,34.45
2022-08-11T17:00:48.598Z,34.42
2022-08-11T17:03:53.775Z,34.37
2022-08-11T17:07:03.712Z,34.72
2022-08-11T17:10:52.476Z,35.02
2022-08-11T17:13:47.971Z,34.95
2022-08-11T17:16:37.920Z,35.01
2022-08-11T17:20:40.962Z,35.08
2022-08-11T17:22:56.068Z,35.23
2022-08-11T17:25:59.865Z,35.16
2022-08-11T17:28:56.779Z,35.05
2022-08-11T17:32:03.971Z,35.21
2022-08-11T17:35:21.068Z,35.78
2022-08-11T17:38:15.490Z,35.62
2022-08-11T17:41:23.614Z,35.62
2022-08-11T17:44:30.354Z,36.05
2022-08-11T17:47:38.923Z,36.12
2022-08-11T17:50:31.944Z,36.51
2022-08-11T17:53:38.713Z,36.67
2022-08-11T17:56:46.138Z,36.77
2022-08-11T17:59:51.587Z,36.88
2022-08-11T18:03:02.723Z,37.30
2022-08-11T18:05:49.846Z,37.35
2022-08-11T18:08:59.718Z,37.73
2022-08-11T18:12:11.648Z,37.81
2022-08-11T18:15:20.227Z,38.09
2022-08-11T18:18:28.051Z,39.08
2022-08-11T18:25:30.111Z,40.31
2022-08-11T18:28:56.281Z,40.75
2022-08-11T18:32:09.826Z,40.91
2022-08-11T18:35:18.999Z,41.86
2022-08-11T18:38:35.611Z,41.66
2022-08-11T18:41:48.033Z,41.98
2022-08-11T18:44:57.780Z,42.55
2022-08-11T18:48:11.514Z,42.63
2022-08-11T18:51:29.800Z,43.28
2022-08-11T18:54:42.618Z,43.90
2022-08-11T18:57:58.142Z,44.56
2022-08-11T19:01:07.312Z,44.40
2022-08-11T19:04:19.033Z,44.78
2022-08-11T19:07:25.338Z,45.16
2022-08-11T19:10:31.786Z,45.40
2022-08-11T19:13:43.331Z,45.73
2022-08-11T19:16:54.121Z,46.19
2022-08-11T19:20:00.164Z,46.21
2022-08-11T19:23:07.116Z,46.52
2022-08-11T19:26:12.879Z,46.57
2022-08-11T19:30:07.090Z,47.05
2022-08-11T19:32:43.819Z,47.37
2022-08-11T19:35:49.337Z,47.67
2022-08-11T19:38:55.813Z,47.16
2022-08-11T19:42:01.136Z,46.20
2022-08-11T19:45:08.145Z,46.33
2022-08-11T19:48:32.101Z,47.48
2022-08-11T19:51:38.918Z,48.17
2022-08-11T19:54:51.986Z,48.36
2022-08-11T19:57:57.876Z,48.30
2022-08-11T20:04:59.643Z,48.54
2022-08-11T20:11:57.620Z,48.42
2022-08-11T20:15:10.156Z,49.43
2022-08-11T20:18:43.735Z,49.43
2022-08-11T20:21:48.140Z,49.33
2022-08-11T20:24:54.902Z,49.58
2022-08-11T20:28:03.185Z,49.93
2022-08-11T20:31:20.083Z,50.29
2022-08-11T20:34:32.794Z,49.91
2022-08-11T20:37:41.003Z,50.43
2022-08-11T20:40:49.171Z,50.67
2022-08-11T20:44:09.115Z,50.94
2022-08-11T20:47:16.053Z,50.86
2022-08-11T20:50:21.927Z,51.41
2022-08-11T20:53:28.091Z,51.62
2022-08-11T20:56:34.081Z,51.48
2022-08-11T20:59:50.161Z,52.26
2022-08-11T21:03:04.153Z,53.00
2022-08-11T21:06:11.216Z,52.81
2022-08-11T21:09:19.639Z,52.84
2022-08-11T21:12:25.504Z,53.07
2022-08-11T21:15:47.605Z,53.12
2022-08-11T21:19:03.496Z,53.34
2022-08-11T21:22:10.233Z,53.03
2022-08-11T21:25:16.888Z,53.29
2022-08-11T21:28:26.932Z,53.36
2022-08-11T21:31:32.517Z,53.19
2022-08-11T21:34:39.196Z,53.99
2022-08-11T21:37:46.519Z,53.74
2022-08-11T21:40:57.797Z,54.31
2022-08-11T21:44:02.838Z,54.25
2022-08-11T21:47:08.504Z,54.44
2022-08-11T21:50:13.360Z,54.18
2022-08-11T21:53:19.607Z,54.41
2022-08-11T21:56:27.577Z,54.50
2022-08-11T21:59:41.615Z,54.83
2022-08-11T22:02:53.484Z,55.10
2022-08-11T22:06:02.479Z,55.11
2022-08-11T22:09:07.237Z,55.68
2022-08-11T22:12:33.423Z,55.46
2022-08-11T22:15:38.829Z,55.63
2022-08-11T22:18:43.968Z,55.74
2022-08-11T22:22:02.396Z,55.76
2022-08-11T22:25:16.633Z,55.82
2022-08-11T22:28:25.759Z,56.09
2022-08-11T22:31:31.128Z,55.94
2022-08-11T22:34:44.762Z,56.34
2022-08-11T22:37:58.822Z,56.44
2022-08-11T22:41:03.374Z,56.52
2022-08-11T22:44:07.729Z,56.45
2022-08-11T22:47:19.587Z,56.93
2022-08-11T22:50:26.604Z,57.19
2022-08-11T22:53:57.931Z,58.01
2022-08-11T22:56:59.427Z,56.56
2022-08-11T23:00:05.100Z,57.40
2022-08-11T23:03:10.273Z,58.13
2022-08-11T23:06:40.125Z,58.58
2022-08-11T23:09:44.740Z,58.80
2022-08-11T23:12:51.780Z,58.09
2022-08-11T23:15:57.644Z,58.57
2022-08-11T23:19:03.572Z,58.60
2022-08-11T23:22:10.552Z,59.15
2022-08-11T23:25:17.785Z,59.17
2022-08-11T23:28:24.972Z,59.35
2022-08-11T23:31:50.314Z,58.71
2022-08-11T23:35:37.065Z,58.65
2022-08-11T23:38:23.887Z,59.92
2022-08-11T23:41:29.970Z,60.39
2022-08-11T23:44:34.756Z,60.99
2022-08-11T23:47:50.916Z,60.90
2022-08-11T23:50:56.262Z,60.63
2022-08-11T23:54:00.783Z,60.69
2022-08-11T23:57:13.864Z,60.61
